JST529 YSSY-YMML
Flight info
| Callsign | JST529 |
|---|---|
| Flight time | 1h 11m |
| Altitude | 38000 |
| Route | MARUB7/34R WOL H65 LEECE Q29 ML |
| Aircraft | A320/M-SDE3FGHIRWY/LB1 |
Departure
| Time | 2026-05-04 11:10 |
|---|---|
| Airport | Sydney Kingsford Smith International Airport (YSSY) |
Arrival
| Time | 2026-05-04 12:21 |
|---|---|
| Airport | Melbourne Airport (YMML) |
| Time | Latitude | Longitude | Altitude | Speed | Heading |
|---|---|---|---|---|---|
| 2026-05-04 10:25 | -33.93515 | 151.17697 | 30 ft | 0 kts | 100° |
| 2026-05-04 10:54 | -33.93512 | 151.17671 | 30 ft | 0 kts | 89° |
| 2026-05-04 10:56 | -33.93512 | 151.17659 | 30 ft | 4 kts | 86° |
| 2026-05-04 10:56 | -33.93513 | 151.17628 | 30 ft | 4 kts | 103° |
| 2026-05-04 10:56 | -33.93506 | 151.17603 | 30 ft | 4 kts | 128° |
| 2026-05-04 10:57 | -33.93486 | 151.17586 | 30 ft | 4 kts | 165° |
| 2026-05-04 10:57 | -33.93478 | 151.17584 | 30 ft | 0 kts | 167° |
| 2026-05-04 10:59 | -33.93490 | 151.17587 | 30 ft | 7 kts | 167° |
| 2026-05-04 10:59 | -33.93577 | 151.17610 | 30 ft | 15 kts | 167° |
| 2026-05-04 10:59 | -33.93682 | 151.17659 | 30 ft | 17 kts | 151° |
| 2026-05-04 11:00 | -33.93802 | 151.17699 | 30 ft | 16 kts | 169° |
| 2026-05-04 11:01 | -33.94644 | 151.17913 | 30 ft | 20 kts | 167° |
| 2026-05-04 11:02 | -33.94787 | 151.17949 | 30 ft | 22 kts | 168° |
| 2026-05-04 11:02 | -33.94943 | 151.17990 | 30 ft | 24 kts | 167° |
| 2026-05-04 11:05 | -33.96965 | 151.19103 | 30 ft | 24 kts | 168° |
| 2026-05-04 11:06 | -33.97110 | 151.19159 | 30 ft | 19 kts | 133° |
| 2026-05-04 11:06 | -33.97117 | 151.19250 | 29 ft | 6 kts | 78° |
| 2026-05-04 11:06 | -33.97114 | 151.19263 | 29 ft | 0 kts | 78° |
| 2026-05-04 11:06 | -33.97114 | 151.19266 | 29 ft | 0 kts | 78° |
| 2026-05-04 11:08 | -33.95214 | 151.18886 | 176 ft | 150 kts | 348° |
| 2026-05-04 11:10 | -33.93806 | 151.26473 | 4128 ft | 205 kts | 82° |
| 2026-05-04 11:12 | -33.93344 | 151.42102 | 8459 ft | 302 kts | 83° |
| 2026-05-04 11:12 | -33.93271 | 151.44643 | 9320 ft | 305 kts | 83° |
| 2026-05-04 11:12 | -33.93197 | 151.47212 | 10149 ft | 309 kts | 83° |
| 2026-05-04 11:12 | -33.93237 | 151.49892 | 10474 ft | 335 kts | 95° |
| 2026-05-04 11:13 | -33.93965 | 151.52666 | 10765 ft | 360 kts | 116° |
| 2026-05-04 11:13 | -33.95480 | 151.55111 | 11370 ft | 370 kts | 136° |
| 2026-05-04 11:13 | -33.97590 | 151.56888 | 12054 ft | 374 kts | 156° |
| 2026-05-04 11:13 | -34.00086 | 151.57727 | 12744 ft | 374 kts | 178° |
| 2026-05-04 11:14 | -34.02653 | 151.57428 | 13404 ft | 370 kts | 201° |
| 2026-05-04 11:14 | -34.04930 | 151.56069 | 14052 ft | 364 kts | 223° |
| 2026-05-04 11:14 | -34.06644 | 151.53943 | 14668 ft | 357 kts | 237° |
| 2026-05-04 11:16 | -34.17812 | 151.37052 | 19047 ft | 378 kts | 237° |
| 2026-05-04 11:16 | -34.19459 | 151.34563 | 19652 ft | 380 kts | 237° |
| 2026-05-04 11:16 | -34.21116 | 151.32056 | 20295 ft | 382 kts | 238° |
| 2026-05-04 11:17 | -34.22776 | 151.29541 | 20925 ft | 384 kts | 238° |
| 2026-05-04 11:17 | -34.24444 | 151.27012 | 21521 ft | 386 kts | 238° |
| 2026-05-04 11:19 | -34.36347 | 151.08881 | 25094 ft | 402 kts | 239° |
| 2026-05-04 11:19 | -34.38087 | 151.06219 | 25515 ft | 405 kts | 239° |
| 2026-05-04 11:19 | -34.39839 | 151.03538 | 25945 ft | 407 kts | 239° |
| 2026-05-04 11:19 | -34.41579 | 151.00881 | 26362 ft | 409 kts | 239° |
| 2026-05-04 11:20 | -34.43354 | 150.98175 | 26769 ft | 411 kts | 239° |
| 2026-05-04 11:20 | -34.45138 | 150.95452 | 27168 ft | 414 kts | 239° |
| 2026-05-04 11:20 | -34.46929 | 150.92711 | 27558 ft | 416 kts | 240° |
| 2026-05-04 11:20 | -34.48725 | 150.89950 | 27948 ft | 418 kts | 240° |
| 2026-05-04 11:22 | -34.61324 | 150.70045 | 30604 ft | 430 kts | 242° |
| 2026-05-04 11:22 | -34.63071 | 150.67088 | 30938 ft | 432 kts | 242° |
| 2026-05-04 11:23 | -34.64826 | 150.64126 | 31268 ft | 433 kts | 242° |
| 2026-05-04 11:23 | -34.66588 | 150.61171 | 31732 ft | 431 kts | 242° |
| 2026-05-04 11:24 | -34.76973 | 150.43924 | 34663 ft | 415 kts | 243° |
| 2026-05-04 11:25 | -34.78666 | 150.41090 | 35020 ft | 414 kts | 243° |
| 2026-05-04 11:25 | -34.80353 | 150.38262 | 35358 ft | 413 kts | 243° |
| 2026-05-04 11:25 | -34.82042 | 150.35432 | 35703 ft | 413 kts | 243° |
| 2026-05-04 11:26 | -34.85412 | 150.29770 | 36294 ft | 413 kts | 243° |
| 2026-05-04 11:27 | -34.97149 | 150.10049 | 38120 ft | 413 kts | 242° |
| 2026-05-04 11:28 | -35.00516 | 150.04359 | 38099 ft | 414 kts | 243° |
| 2026-05-04 11:28 | -35.03881 | 149.98657 | 38096 ft | 414 kts | 242° |
| 2026-05-04 11:29 | -35.07246 | 149.92956 | 38097 ft | 414 kts | 242° |
| 2026-05-04 11:29 | -35.10592 | 149.87291 | 38100 ft | 414 kts | 242° |
| 2026-05-04 11:33 | -35.34141 | 149.47066 | 38124 ft | 417 kts | 243° |
| 2026-05-04 11:33 | -35.37507 | 149.41286 | 38126 ft | 417 kts | 243° |
| 2026-05-04 11:34 | -35.40864 | 149.35498 | 38130 ft | 417 kts | 243° |
| 2026-05-04 11:34 | -35.44226 | 149.29696 | 38152 ft | 417 kts | 243° |
| 2026-05-04 11:35 | -35.47585 | 149.23893 | 38141 ft | 417 kts | 242° |
| 2026-05-04 11:35 | -35.50922 | 149.18127 | 38139 ft | 417 kts | 243° |
| 2026-05-04 11:36 | -35.54276 | 149.12314 | 38134 ft | 417 kts | 243° |
| 2026-05-04 11:36 | -35.57628 | 149.06493 | 38157 ft | 417 kts | 243° |
| 2026-05-04 11:37 | -35.60975 | 149.00669 | 38155 ft | 417 kts | 243° |
| 2026-05-04 11:37 | -35.64325 | 148.94844 | 38140 ft | 417 kts | 243° |
| 2026-05-04 11:38 | -35.67666 | 148.89013 | 38120 ft | 417 kts | 243° |
| 2026-05-04 11:38 | -35.70984 | 148.83207 | 38170 ft | 418 kts | 243° |
| 2026-05-04 11:39 | -35.74317 | 148.77375 | 38124 ft | 416 kts | 243° |
| 2026-05-04 11:41 | -35.85929 | 148.56961 | 38140 ft | 417 kts | 243° |
| 2026-05-04 11:41 | -35.89242 | 148.51109 | 38118 ft | 416 kts | 243° |
| 2026-05-04 11:42 | -35.92553 | 148.45250 | 38113 ft | 417 kts | 243° |
| 2026-05-04 11:42 | -35.95862 | 148.39372 | 38112 ft | 417 kts | 243° |
| 2026-05-04 11:43 | -35.99170 | 148.33478 | 38146 ft | 418 kts | 243° |
| 2026-05-04 11:43 | -36.02459 | 148.27610 | 38126 ft | 418 kts | 243° |
| 2026-05-04 11:44 | -36.05773 | 148.21686 | 38132 ft | 419 kts | 243° |
| 2026-05-04 11:44 | -36.09088 | 148.15747 | 38130 ft | 420 kts | 242° |
| 2026-05-04 11:45 | -36.12407 | 148.09797 | 38126 ft | 421 kts | 242° |
| 2026-05-04 11:45 | -36.15742 | 148.03834 | 38124 ft | 422 kts | 242° |
| 2026-05-04 11:46 | -36.19084 | 147.97875 | 38122 ft | 422 kts | 242° |
| 2026-05-04 11:46 | -36.22396 | 147.91933 | 38142 ft | 422 kts | 243° |
| 2026-05-04 11:47 | -36.25720 | 147.85946 | 38136 ft | 421 kts | 243° |
| 2026-05-04 11:47 | -36.29038 | 147.79967 | 38129 ft | 421 kts | 242° |
| 2026-05-04 11:48 | -36.32357 | 147.73992 | 38124 ft | 421 kts | 242° |
| 2026-05-04 11:48 | -36.35678 | 147.68004 | 38117 ft | 421 kts | 242° |
| 2026-05-04 11:49 | -36.38960 | 147.62049 | 38120 ft | 421 kts | 242° |
| 2026-05-04 11:49 | -36.42257 | 147.56042 | 38108 ft | 420 kts | 242° |
| 2026-05-04 11:50 | -36.45540 | 147.50047 | 38100 ft | 420 kts | 242° |
| 2026-05-04 11:50 | -36.48826 | 147.44043 | 38097 ft | 420 kts | 242° |
| 2026-05-04 11:51 | -36.52110 | 147.38030 | 38102 ft | 421 kts | 242° |
| 2026-05-04 11:51 | -36.55401 | 147.32018 | 38101 ft | 420 kts | 242° |
| 2026-05-04 11:52 | -36.58665 | 147.26039 | 38088 ft | 421 kts | 242° |
| 2026-05-04 11:52 | -36.61953 | 147.20009 | 38088 ft | 421 kts | 243° |
| 2026-05-04 11:53 | -36.65240 | 147.13970 | 38094 ft | 422 kts | 243° |
| 2026-05-04 11:53 | -36.68527 | 147.07924 | 38095 ft | 421 kts | 243° |
| 2026-05-04 11:55 | -36.81587 | 146.83747 | 38116 ft | 422 kts | 243° |
| 2026-05-04 11:56 | -36.84866 | 146.77654 | 38102 ft | 423 kts | 242° |
| 2026-05-04 11:56 | -36.88126 | 146.71581 | 37639 ft | 426 kts | 243° |
| 2026-05-04 11:56 | -36.89783 | 146.68486 | 36272 ft | 432 kts | 243° |
| 2026-05-04 11:57 | -36.91463 | 146.65343 | 34851 ft | 437 kts | 244° |
| 2026-05-04 11:57 | -36.93150 | 146.62187 | 33747 ft | 434 kts | 244° |
| 2026-05-04 11:57 | -36.94809 | 146.59098 | 33196 ft | 418 kts | 244° |
| 2026-05-04 11:57 | -36.96402 | 146.56153 | 32751 ft | 401 kts | 245° |
| 2026-05-04 11:58 | -36.97936 | 146.53305 | 32299 ft | 391 kts | 245° |
| 2026-05-04 11:58 | -36.99440 | 146.50483 | 31834 ft | 389 kts | 246° |
| 2026-05-04 11:58 | -37.00928 | 146.47671 | 31363 ft | 387 kts | 246° |
| 2026-05-04 11:58 | -37.02405 | 146.44872 | 30914 ft | 385 kts | 246° |
| 2026-05-04 11:59 | -37.03861 | 146.42119 | 30461 ft | 384 kts | 246° |
| 2026-05-04 11:59 | -37.05335 | 146.39335 | 29979 ft | 383 kts | 246° |
| 2026-05-04 11:59 | -37.06806 | 146.36563 | 29491 ft | 382 kts | 246° |
| 2026-05-04 11:59 | -37.08270 | 146.33806 | 29033 ft | 379 kts | 246° |
| 2026-05-04 12:00 | -37.09731 | 146.31059 | 28577 ft | 377 kts | 245° |
| 2026-05-04 12:00 | -37.11178 | 146.28327 | 28085 ft | 376 kts | 245° |
| 2026-05-04 12:00 | -37.12618 | 146.25607 | 27638 ft | 373 kts | 244° |
| 2026-05-04 12:00 | -37.13564 | 146.23816 | 27340 ft | 372 kts | 244° |
| 2026-05-04 12:01 | -37.14989 | 146.21116 | 26900 ft | 371 kts | 244° |
| 2026-05-04 12:01 | -37.16408 | 146.18424 | 26461 ft | 369 kts | 243° |
| 2026-05-04 12:02 | -37.24824 | 146.02450 | 23871 ft | 364 kts | 240° |
| 2026-05-04 12:03 | -37.26215 | 145.99793 | 23376 ft | 363 kts | 240° |
| 2026-05-04 12:03 | -37.27601 | 145.97148 | 22904 ft | 361 kts | 240° |
| 2026-05-04 12:03 | -37.28976 | 145.94525 | 22447 ft | 358 kts | 240° |
| 2026-05-04 12:03 | -37.30780 | 145.91084 | 21827 ft | 354 kts | 242° |
| 2026-05-04 12:04 | -37.32129 | 145.88513 | 21363 ft | 351 kts | 240° |
| 2026-05-04 12:04 | -37.33036 | 145.86787 | 21052 ft | 350 kts | 240° |
| 2026-05-04 12:04 | -37.34353 | 145.84278 | 20589 ft | 347 kts | 242° |
| 2026-05-04 12:04 | -37.35674 | 145.81757 | 20123 ft | 344 kts | 240° |
| 2026-05-04 12:05 | -37.36987 | 145.79254 | 19659 ft | 342 kts | 241° |
| 2026-05-04 12:05 | -37.38293 | 145.76764 | 19201 ft | 340 kts | 240° |
| 2026-05-04 12:05 | -37.39591 | 145.74290 | 18744 ft | 338 kts | 240° |
| 2026-05-04 12:05 | -37.40880 | 145.71831 | 18274 ft | 336 kts | 240° |
| 2026-05-04 12:06 | -37.42162 | 145.69379 | 17778 ft | 334 kts | 240° |
| 2026-05-04 12:06 | -37.43428 | 145.66955 | 17330 ft | 330 kts | 240° |
| 2026-05-04 12:06 | -37.45085 | 145.63778 | 16736 ft | 325 kts | 240° |
| 2026-05-04 12:06 | -37.45927 | 145.62225 | 16441 ft | 324 kts | 238° |
| 2026-05-04 12:07 | -37.47237 | 145.59928 | 16002 ft | 322 kts | 237° |
| 2026-05-04 12:07 | -37.48567 | 145.57667 | 15566 ft | 320 kts | 237° |
| 2026-05-04 12:07 | -37.49895 | 145.55428 | 15132 ft | 318 kts | 237° |
| 2026-05-04 12:07 | -37.51211 | 145.53204 | 14702 ft | 316 kts | 237° |
| 2026-05-04 12:08 | -37.52516 | 145.50982 | 14274 ft | 315 kts | 237° |
| 2026-05-04 12:08 | -37.53809 | 145.48770 | 13852 ft | 312 kts | 237° |
| 2026-05-04 12:08 | -37.55074 | 145.46601 | 13406 ft | 310 kts | 237° |
| 2026-05-04 12:08 | -37.56341 | 145.44420 | 13054 ft | 305 kts | 237° |
| 2026-05-04 12:09 | -37.57579 | 145.42289 | 13019 ft | 300 kts | 238° |
| 2026-05-04 12:09 | -37.58809 | 145.40168 | 12933 ft | 301 kts | 238° |
| 2026-05-04 12:09 | -37.60059 | 145.37999 | 12103 ft | 311 kts | 238° |
| 2026-05-04 12:09 | -37.61336 | 145.35777 | 11459 ft | 313 kts | 237° |
| 2026-05-04 12:10 | -37.62614 | 145.33557 | 10986 ft | 309 kts | 238° |
| 2026-05-04 12:10 | -37.63853 | 145.31411 | 10502 ft | 295 kts | 238° |
| 2026-05-04 12:10 | -37.65031 | 145.29375 | 10115 ft | 280 kts | 238° |
| 2026-05-04 12:10 | -37.66142 | 145.27454 | 9630 ft | 271 kts | 238° |
| 2026-05-04 12:11 | -37.67230 | 145.25570 | 9440 ft | 265 kts | 237° |
| 2026-05-04 12:11 | -37.68312 | 145.23687 | 9318 ft | 265 kts | 238° |
| 2026-05-04 12:11 | -37.69393 | 145.21808 | 9090 ft | 264 kts | 238° |
| 2026-05-04 12:11 | -37.70472 | 145.19932 | 8621 ft | 267 kts | 238° |
| 2026-05-04 12:12 | -37.71561 | 145.18040 | 8303 ft | 264 kts | 238° |
| 2026-05-04 12:12 | -37.72632 | 145.16174 | 7978 ft | 262 kts | 238° |
| 2026-05-04 12:12 | -37.73690 | 145.14330 | 7496 ft | 256 kts | 238° |
| 2026-05-04 12:12 | -37.74705 | 145.12568 | 7247 ft | 241 kts | 238° |
| 2026-05-04 12:13 | -37.75662 | 145.10906 | 6834 ft | 234 kts | 238° |
| 2026-05-04 12:14 | -37.81676 | 144.99198 | 4713 ft | 219 kts | 259° |
| 2026-05-04 12:15 | -37.81996 | 144.97337 | 4248 ft | 215 kts | 259° |
| 2026-05-04 12:15 | -37.82310 | 144.95543 | 4032 ft | 199 kts | 259° |
| 2026-05-04 12:15 | -37.82590 | 144.93921 | 3900 ft | 182 kts | 261° |
| 2026-05-04 12:15 | -37.82796 | 144.92393 | 3619 ft | 174 kts | 263° |
| 2026-05-04 12:16 | -37.82972 | 144.90929 | 3492 ft | 163 kts | 263° |
| 2026-05-04 12:16 | -37.83136 | 144.89558 | 3366 ft | 152 kts | 263° |
| 2026-05-04 12:16 | -37.83251 | 144.88289 | 3270 ft | 138 kts | 275° |
| 2026-05-04 12:16 | -37.82906 | 144.87242 | 3209 ft | 127 kts | 304° |
| 2026-05-04 12:17 | -37.82146 | 144.86638 | 3034 ft | 137 kts | 336° |
| 2026-05-04 12:17 | -37.81204 | 144.86464 | 2873 ft | 133 kts | 339° |
| 2026-05-04 12:17 | -37.80294 | 144.86300 | 2690 ft | 130 kts | 338° |
| 2026-05-04 12:17 | -37.79425 | 144.86141 | 2510 ft | 127 kts | 338° |
| 2026-05-04 12:18 | -37.78550 | 144.85975 | 2335 ft | 127 kts | 339° |
| 2026-05-04 12:18 | -37.77675 | 144.85810 | 2163 ft | 127 kts | 339° |
| 2026-05-04 12:18 | -37.76800 | 144.85646 | 1996 ft | 127 kts | 341° |
| 2026-05-04 12:18 | -37.75933 | 144.85483 | 1829 ft | 125 kts | 341° |
| 2026-05-04 12:19 | -37.75075 | 144.85321 | 1654 ft | 127 kts | 340° |
| 2026-05-04 12:19 | -37.74198 | 144.85155 | 1487 ft | 127 kts | 341° |
| 2026-05-04 12:19 | -37.73324 | 144.84992 | 1311 ft | 126 kts | 347° |
| 2026-05-04 12:19 | -37.72447 | 144.84828 | 1136 ft | 127 kts | 349° |
| 2026-05-04 12:20 | -37.71584 | 144.84665 | 963 ft | 128 kts | 352° |
| 2026-05-04 12:20 | -37.70693 | 144.84498 | 806 ft | 127 kts | 351° |
| 2026-05-04 12:20 | -37.69822 | 144.84335 | 671 ft | 126 kts | 352° |
| 2026-05-04 12:20 | -37.68965 | 144.84170 | 452 ft | 124 kts | 352° |
| 2026-05-04 12:21 | -37.68127 | 144.84015 | 358 ft | 111 kts | 352° |
| 2026-05-04 12:21 | -37.67594 | 144.83915 | 364 ft | 48 kts | 351° |
| 2026-05-04 12:21 | -37.67338 | 144.83867 | 373 ft | 30 kts | 352° |
| 2026-05-04 12:21 | -37.67150 | 144.83834 | 382 ft | 26 kts | 353° |
| 2026-05-04 12:22 | -37.66969 | 144.83856 | 387 ft | 27 kts | 16° |
| 2026-05-04 12:22 | -37.66831 | 144.83919 | 392 ft | 12 kts | 21° |
| 2026-05-04 12:22 | -37.66802 | 144.83987 | 392 ft | 12 kts | 150° |
| 2026-05-04 12:22 | -37.66922 | 144.84007 | 388 ft | 22 kts | 172° |
| 2026-05-04 12:23 | -37.67094 | 144.84040 | 382 ft | 28 kts | 171° |
| 2026-05-04 12:23 | -37.67306 | 144.84078 | 376 ft | 32 kts | 173° |
| 2026-05-04 12:23 | -37.67457 | 144.84111 | 372 ft | 16 kts | 153° |
| 2026-05-04 12:23 | -37.67495 | 144.84239 | 374 ft | 17 kts | 80° |
| 2026-05-04 12:24 | -37.67474 | 144.84392 | 377 ft | 18 kts | 84° |
| 2026-05-04 12:24 | -37.67501 | 144.84536 | 378 ft | 18 kts | 148° |
| 2026-05-04 12:24 | -37.67619 | 144.84563 | 374 ft | 15 kts | 172° |
| 2026-05-04 12:24 | -37.67723 | 144.84596 | 371 ft | 17 kts | 138° |
| 2026-05-04 12:25 | -37.67735 | 144.84723 | 372 ft | 13 kts | 81° |
| 2026-05-04 12:25 | -37.67702 | 144.84766 | 373 ft | 7 kts | 353° |
| 2026-05-04 12:25 | -37.67650 | 144.84757 | 375 ft | 8 kts | 351° |
| 2026-05-04 12:25 | -37.67628 | 144.84752 | 376 ft | 1 kts | 351° |
| 2026-05-04 12:26 | -37.67625 | 144.84752 | 376 ft | 0 kts | 351° |